Time;durP1;ratioP1;P1;durP2;ratioP2;P2;SDS_P1;SDS_P2;PMS_P1;PMS_P2;Temp;Humidity;BMP_temperature;BMP_pressure;BME280_temperature;BME280_humidity;BME280_pressure;Samples;Min_cycle;Max_cycle;Signal;HPM_P1;HPM_P2
2022/10/26 00:02:19;;;;;;;5.88;2.80;;;;;;;;;;5071406;28;20049;-71
2022/10/26 00:04:46;;;;;;;5.63;2.92;;;;;;;;;;5071164;28;20149;-71
2022/10/26 00:07:12;;;;;;;6.35;2.75;;;;;;;;;;5071184;28;20056;-71
2022/10/26 00:09:38;;;;;;;3.75;2.67;;;;;;;;;;5071075;28;20053;-71
2022/10/26 00:12:05;;;;;;;5.25;2.70;;;;;;;;;;5071411;28;20059;-71
2022/10/26 00:14:31;;;;;;;4.47;2.80;;;;;;;;;;5070973;28;20053;-72
2022/10/26 00:16:58;;;;;;;7.03;3.10;;;;;;;;;;5071051;28;20051;-73
2022/10/26 00:19:24;;;;;;;7.45;3.15;;;;;;;;;;5071072;28;20041;-73
2022/10/26 00:21:51;;;;;;;6.35;3.03;;;;;;;;;;5071144;28;20044;-73
2022/10/26 00:24:17;;;;;;;8.95;3.78;;;;;;;;;;5071280;28;20058;-73
2022/10/26 00:26:43;;;;;;;9.18;3.70;;;;;;;;;;5071154;28;20052;-73
2022/10/26 00:29:11;;;;;;;10.02;3.97;;;;;;;;;;5069963;28;20048;-73
2022/10/26 00:31:38;;;;;;;11.75;4.25;;;;;;;;;;5070856;28;20496;-73
2022/10/26 00:34:04;;;;;;;9.98;3.90;;;;;;;;;;5069709;28;20052;-73
2022/10/26 00:36:31;;;;;;;14.50;4.15;;;;;;;;;;5069707;28;20056;-73
2022/10/26 00:38:57;;;;;;;10.82;4.30;;;;;;;;;;5071970;28;20045;-73
2022/10/26 00:41:25;;;;;;;11.05;3.92;;;;;;;;;;5074736;28;20106;-73
2022/10/26 00:43:52;;;;;;;8.52;4.07;;;;;;;;;;5074077;28;20052;-73
2022/10/26 00:46:20;;;;;;;8.55;3.47;;;;;;;;;;5074651;28;20052;-73
2022/10/26 00:48:51;;;;;;;9.32;3.58;;;;;;;;;;5074679;28;20049;-73
2022/10/26 00:51:31;;;;;;;12.15;3.90;;;;;;;;;;5073036;28;20052;-73
2022/10/26 00:54:02;;;;;;;8.57;3.28;;;;;;;;;;5074186;28;20483;-73
2022/10/26 00:56:28;;;;;;;9.52;3.42;;;;;;;;;;5074106;28;20044;-73
2022/10/26 00:58:56;;;;;;;10.38;3.88;;;;;;;;;;5074342;28;20047;-73
2022/10/26 01:01:22;;;;;;;8.95;3.40;;;;;;;;;;5074275;28;20051;-72
2022/10/26 01:03:49;;;;;;;8.10;3.55;;;;;;;;;;5074070;28;20048;-72
2022/10/26 01:06:15;;;;;;;9.77;3.72;;;;;;;;;;5073957;28;20053;-72
2022/10/26 01:08:42;;;;;;;9.13;3.35;;;;;;;;;;5073934;28;20052;-72
2022/10/26 01:11:09;;;;;;;15.03;3.87;;;;;;;;;;5074123;28;20056;-72
2022/10/26 01:13:36;;;;;;;10.43;3.80;;;;;;;;;;5074196;28;20048;-73
2022/10/26 01:16:14;;;;;;;11.47;4.00;;;;;;;;;;5073733;28;20767;-73
2022/10/26 01:18:44;;;;;;;10.18;4.20;;;;;;;;;;5073878;28;20041;-74
2022/10/26 01:21:10;;;;;;;11.25;4.35;;;;;;;;;;5073679;28;20492;-76
2022/10/26 01:23:52;;;;;;;14.55;4.57;;;;;;;;;;5072392;28;20048;-75
2022/10/26 01:26:37;;;;;;;9.52;3.85;;;;;;;;;;5073557;28;20059;-75
2022/10/26 01:29:09;;;;;;;7.50;4.40;;;;;;;;;;5072412;28;20450;-75
2022/10/26 01:31:39;;;;;;;10.07;3.88;;;;;;;;;;5073752;28;20040;-75
2022/10/26 01:34:29;;;;;;;10.88;3.88;;;;;;;;;;5074066;28;20364;-76
2022/10/26 01:36:57;;;;;;;6.93;3.65;;;;;;;;;;5073473;28;20044;-75
2022/10/26 01:39:38;;;;;;;10.63;3.65;;;;;;;;;;5073490;28;20040;-75
2022/10/26 01:42:06;;;;;;;6.57;3.60;;;;;;;;;;5073240;28;20044;-75
2022/10/26 01:44:38;;;;;;;6.35;3.22;;;;;;;;;;5072052;28;20062;-75
2022/10/26 01:47:05;;;;;;;7.88;3.20;;;;;;;;;;5072104;28;20075;-75
2022/10/26 01:49:34;;;;;;;7.03;2.90;;;;;;;;;;5072246;28;20075;-74
2022/10/26 01:52:00;;;;;;;4.68;2.83;;;;;;;;;;5073101;28;20056;-74
2022/10/26 01:54:28;;;;;;;5.32;2.65;;;;;;;;;;5073094;28;20068;-74
2022/10/26 01:56:56;;;;;;;4.80;2.72;;;;;;;;;;5072867;28;20051;-74
2022/10/26 01:59:25;;;;;;;8.40;2.85;;;;;;;;;;5073178;28;20050;-73
2022/10/26 02:02:02;;;;;;;7.88;2.67;;;;;;;;;;5073071;28;20040;-73
2022/10/26 02:04:37;;;;;;;8.23;2.53;;;;;;;;;;5073135;28;20048;-73
2022/10/26 02:07:15;;;;;;;9.63;3.47;;;;;;;;;;5071794;28;20056;-72
2022/10/26 02:09:47;;;;;;;9.15;2.83;;;;;;;;;;5072695;28;20059;-72
2022/10/26 02:12:20;;;;;;;7.85;3.28;;;;;;;;;;5073024;28;20052;-72
2022/10/26 02:14:48;;;;;;;12.18;3.20;;;;;;;;;;5072626;28;20049;-72
2022/10/26 02:17:24;;;;;;;13.25;4.05;;;;;;;;;;5072485;28;20049;-72
2022/10/26 02:19:53;;;;;;;9.80;2.92;;;;;;;;;;5071494;28;20053;-72
2022/10/26 02:22:28;;;;;;;12.98;2.90;;;;;;;;;;5072706;28;20063;-72
2022/10/26 02:24:55;;;;;;;13.05;2.95;;;;;;;;;;5072464;28;20045;-72
2022/10/26 02:27:24;;;;;;;8.63;2.63;;;;;;;;;;5072546;28;20057;-72
2022/10/26 02:29:52;;;;;;;7.78;3.05;;;;;;;;;;5072380;28;20415;-72
2022/10/26 02:32:20;;;;;;;10.43;2.60;;;;;;;;;;5071356;28;20052;-72
2022/10/26 02:34:48;;;;;;;7.25;2.20;;;;;;;;;;5072355;28;20495;-72
2022/10/26 02:37:17;;;;;;;6.35;2.45;;;;;;;;;;5072370;28;20045;-72
2022/10/26 02:39:44;;;;;;;9.85;2.50;;;;;;;;;;5072268;28;20056;-71
2022/10/26 02:42:12;;;;;;;9.80;2.97;;;;;;;;;;5071189;28;20044;-71
2022/10/26 02:44:44;;;;;;;10.88;2.58;;;;;;;;;;5071956;28;20055;-72
2022/10/26 02:47:11;;;;;;;12.13;2.75;;;;;;;;;;5071023;28;20058;-71
2022/10/26 02:49:38;;;;;;;7.43;1.92;;;;;;;;;;5072268;28;20412;-71
2022/10/26 02:52:15;;;;;;;10.45;2.75;;;;;;;;;;5072037;28;20056;-71
2022/10/26 02:54:45;;;;;;;8.23;1.88;;;;;;;;;;5071966;28;20056;-71
2022/10/26 02:57:27;;;;;;;9.80;1.83;;;;;;;;;;5072053;28;20048;-71
2022/10/26 02:59:54;;;;;;;12.25;2.25;;;;;;;;;;5072258;28;20412;-71
2022/10/26 03:02:21;;;;;;;11.20;2.47;;;;;;;;;;5071757;28;20057;-71
2022/10/26 03:04:48;;;;;;;14.23;2.53;;;;;;;;;;5071837;28;20586;-71
2022/10/26 03:07:24;;;;;;;11.73;2.20;;;;;;;;;;5072086;28;20047;-71
2022/10/26 03:09:51;;;;;;;12.07;2.58;;;;;;;;;;5071993;28;20385;-71
2022/10/26 03:12:17;;;;;;;13.60;2.47;;;;;;;;;;5072012;28;20052;-71
2022/10/26 03:14:43;;;;;;;13.13;2.10;;;;;;;;;;5071951;28;20056;-71
2022/10/26 03:17:10;;;;;;;15.07;3.05;;;;;;;;;;5071740;28;20056;-71
2022/10/26 03:19:36;;;;;;;13.32;2.05;;;;;;;;;;5072066;28;20044;-71
2022/10/26 03:22:03;;;;;;;14.68;2.50;;;;;;;;;;5071865;28;20048;-70
2022/10/26 03:24:29;;;;;;;11.05;2.33;;;;;;;;;;5071616;28;20048;-70
2022/10/26 03:26:55;;;;;;;9.73;2.40;;;;;;;;;;5071851;28;20070;-70
2022/10/26 03:29:27;;;;;;;12.98;2.22;;;;;;;;;;5071655;28;20510;-70
2022/10/26 03:31:54;;;;;;;14.05;2.88;;;;;;;;;;5071565;28;20051;-70
2022/10/26 03:34:20;;;;;;;9.13;2.22;;;;;;;;;;5071857;28;20063;-70
2022/10/26 03:36:46;;;;;;;8.40;2.50;;;;;;;;;;5064972;28;20067;-70
2022/10/26 03:39:13;;;;;;;15.55;2.70;;;;;;;;;;5070642;28;20044;-70
2022/10/26 03:41:39;;;;;;;14.00;2.55;;;;;;;;;;5071363;28;20036;-70
2022/10/26 03:44:06;;;;;;;18.13;2.63;;;;;;;;;;5071345;28;20044;-70
2022/10/26 03:46:32;;;;;;;12.95;2.80;;;;;;;;;;5071530;28;20408;-70
2022/10/26 03:48:58;;;;;;;15.13;2.22;;;;;;;;;;5071575;28;20059;-70
2022/10/26 03:51:25;;;;;;;12.95;2.88;;;;;;;;;;5071619;28;20052;-70
2022/10/26 03:53:51;;;;;;;13.68;2.50;;;;;;;;;;5071397;28;20059;-70
2022/10/26 03:56:17;;;;;;;19.95;3.55;;;;;;;;;;5071407;28;20048;-71
2022/10/26 03:58:44;;;;;;;11.25;3.03;;;;;;;;;;5071552;28;20054;-70
2022/10/26 04:01:10;;;;;;;13.05;2.63;;;;;;;;;;5071128;28;20086;-71
2022/10/26 04:03:37;;;;;;;13.45;2.22;;;;;;;;;;5071260;28;20086;-71
2022/10/26 04:06:03;;;;;;;15.63;2.65;;;;;;;;;;5071477;28;20049;-70
2022/10/26 04:08:30;;;;;;;18.45;2.70;;;;;;;;;;5071477;28;20055;-71
2022/10/26 04:10:56;;;;;;;10.45;2.25;;;;;;;;;;5071245;28;20408;-70
2022/10/26 04:13:27;;;;;;;14.48;3.15;;;;;;;;;;5073197;28;20045;-71
2022/10/26 04:15:54;;;;;;;20.58;2.83;;;;;;;;;;5075045;28;20415;-70
2022/10/26 04:18:20;;;;;;;19.02;3.00;;;;;;;;;;5074733;28;20393;-70
2022/10/26 04:20:47;;;;;;;15.75;2.65;;;;;;;;;;5075114;28;20055;-70
2022/10/26 04:23:14;;;;;;;14.43;2.75;;;;;;;;;;5074749;28;20531;-70
2022/10/26 04:25:41;;;;;;;14.50;3.22;;;;;;;;;;5074957;28;20044;-71
2022/10/26 04:28:08;;;;;;;13.32;2.60;;;;;;;;;;5074605;28;20665;-71
2022/10/26 04:30:35;;;;;;;13.60;2.88;;;;;;;;;;5074760;28;20055;-71
2022/10/26 04:33:02;;;;;;;17.20;3.03;;;;;;;;;;5074761;28;20052;-71
2022/10/26 04:35:28;;;;;;;12.38;2.40;;;;;;;;;;5074902;28;20054;-71
2022/10/26 04:37:58;;;;;;;15.07;2.38;;;;;;;;;;5074694;28;20052;-71
2022/10/26 04:40:26;;;;;;;19.38;2.67;;;;;;;;;;5074468;28;20484;-72
2022/10/26 04:42:52;;;;;;;15.90;2.63;;;;;;;;;;5074533;28;20048;-72
2022/10/26 04:45:19;;;;;;;;;;;;;;;;;;5074603;28;20458;-72
2022/10/26 04:47:46;;;;;;;14.45;3.03;;;;;;;;;;5074678;28;20278;-72
2022/10/26 04:50:13;;;;;;;14.98;2.45;;;;;;;;;;5074415;28;20068;-71
2022/10/26 04:52:39;;;;;;;15.40;2.58;;;;;;;;;;5074443;28;20044;-72
2022/10/26 04:55:06;;;;;;;13.05;3.03;;;;;;;;;;5074536;28;20075;-71
2022/10/26 04:57:33;;;;;;;11.40;2.55;;;;;;;;;;5074131;28;20052;-71
2022/10/26 05:00:03;;;;;;;15.20;3.05;;;;;;;;;;5074366;28;20132;-71
2022/10/26 05:02:29;;;;;;;21.77;3.15;;;;;;;;;;5074002;28;20407;-72
2022/10/26 05:04:55;;;;;;;19.27;3.20;;;;;;;;;;5074392;28;20050;-72
2022/10/26 05:07:22;;;;;;;19.90;3.50;;;;;;;;;;5072639;28;20504;-72
2022/10/26 05:09:48;;;;;;;16.00;3.22;;;;;;;;;;5074061;28;20056;-73
2022/10/26 05:12:15;;;;;;;15.15;2.83;;;;;;;;;;5073889;28;20130;-73
2022/10/26 05:14:41;;;;;;;17.00;3.47;;;;;;;;;;5073890;28;20040;-73
2022/10/26 05:17:07;;;;;;;15.57;3.08;;;;;;;;;;5073725;28;20488;-73
2022/10/26 05:19:34;;;;;;;16.52;3.00;;;;;;;;;;5073710;28;20048;-73
2022/10/26 05:22:00;;;;;;;11.85;2.88;;;;;;;;;;5073737;28;20049;-73
2022/10/26 05:24:26;;;;;;;14.27;2.85;;;;;;;;;;5073691;28;20044;-73
2022/10/26 05:26:53;;;;;;;13.40;2.70;;;;;;;;;;5073944;28;20044;-74
2022/10/26 05:29:20;;;;;;;11.20;2.92;;;;;;;;;;5073498;28;20067;-73
2022/10/26 05:31:47;;;;;;;14.57;3.05;;;;;;;;;;5073737;28;20055;-74
2022/10/26 05:34:13;;;;;;;16.67;3.60;;;;;;;;;;5073408;28;20534;-74
2022/10/26 05:36:39;;;;;;;15.02;2.92;;;;;;;;;;5073355;28;20050;-74
2022/10/26 05:39:06;;;;;;;17.80;3.05;;;;;;;;;;5073380;28;20045;-74
2022/10/26 05:41:32;;;;;;;26.85;3.08;;;;;;;;;;5072345;28;20063;-74
2022/10/26 05:43:58;;;;;;;14.50;3.13;;;;;;;;;;5064929;28;20049;-73
2022/10/26 05:46:25;;;;;;;13.40;2.88;;;;;;;;;;5064848;28;20044;-73
2022/10/26 05:48:51;;;;;;;19.15;3.63;;;;;;;;;;5072048;28;20051;-73
2022/10/26 05:51:18;;;;;;;23.40;3.38;;;;;;;;;;5073299;28;20063;-73
2022/10/26 05:53:44;;;;;;;16.80;3.78;;;;;;;;;;5073317;28;20050;-73
2022/10/26 05:56:19;;;;;;;18.55;3.45;;;;;;;;;;5073012;28;20055;-73
2022/10/26 05:58:46;;;;;;;19.33;3.28;;;;;;;;;;5058340;28;20415;-73
2022/10/26 06:01:16;;;;;;;18.02;3.78;;;;;;;;;;5051438;28;20044;-73
2022/10/26 06:03:53;;;;;;;17.17;3.35;;;;;;;;;;5060552;28;20040;-72
2022/10/26 06:06:21;;;;;;;19.23;3.97;;;;;;;;;;5064283;28;20493;-74
2022/10/26 06:08:47;;;;;;;14.15;2.95;;;;;;;;;;5052584;28;20055;-77
2022/10/26 06:11:14;;;;;;;14.82;2.83;;;;;;;;;;5053873;28;20412;-76
2022/10/26 06:13:40;;;;;;;14.55;2.72;;;;;;;;;;5071777;28;20047;-79
2022/10/26 06:16:18;;;;;;;14.70;3.28;;;;;;;;;;5072974;28;20055;-76
2022/10/26 06:19:00;;;;;;;15.98;2.78;;;;;;;;;;5071342;28;20055;-76
2022/10/26 06:21:46;;;;;;;14.88;2.42;;;;;;;;;;5072523;28;20055;-74
2022/10/26 06:24:23;;;;;;;15.73;2.70;;;;;;;;;;5072754;28;20044;-74
2022/10/26 06:26:49;;;;;;;14.68;2.58;;;;;;;;;;5051718;28;20052;-74
2022/10/26 06:29:23;;;;;;;11.43;2.33;;;;;;;;;;5065419;28;20059;-74
2022/10/26 06:31:50;;;;;;;14.02;2.55;;;;;;;;;;5071094;28;20059;-74
2022/10/26 06:34:24;;;;;;;13.27;2.47;;;;;;;;;;5071178;28;20140;-75
2022/10/26 06:36:50;;;;;;;15.77;2.88;;;;;;;;;;5071865;28;20131;-76
2022/10/26 06:39:18;;;;;;;17.70;2.30;;;;;;;;;;5071274;28;20051;-75
2022/10/26 06:41:44;;;;;;;17.92;2.25;;;;;;;;;;5071972;28;20049;-75
2022/10/26 06:44:14;;;;;;;12.20;2.30;;;;;;;;;;5071783;28;20071;-80
2022/10/26 06:46:45;;;;;;;15.75;3.63;;;;;;;;;;5071003;28;20051;-75
2022/10/26 06:49:11;;;;;;;13.48;2.35;;;;;;;;;;5072091;28;20484;-76
2022/10/26 06:51:41;;;;;;;11.75;2.63;;;;;;;;;;5060401;28;20044;-74
2022/10/26 06:54:15;;;;;;;20.55;2.70;;;;;;;;;;5062000;28;20053;-74
2022/10/26 06:56:42;;;;;;;14.73;2.83;;;;;;;;;;5071884;28;20049;-76
2022/10/26 06:59:13;;;;;;;15.15;3.00;;;;;;;;;;5070989;28;20054;-76
2022/10/26 07:01:40;;;;;;;17.50;2.78;;;;;;;;;;5068643;28;20072;-76
2022/10/26 07:04:06;;;;;;;16.63;3.72;;;;;;;;;;5059745;28;20056;-76
2022/10/26 07:06:32;;;;;;;18.00;3.55;;;;;;;;;;5056991;28;20048;-76
2022/10/26 07:09:04;;;;;;;16.85;2.75;;;;;;;;;;5058524;28;20148;-76
2022/10/26 07:11:30;;;;;;;18.90;3.45;;;;;;;;;;5072049;28;20053;-76
2022/10/26 07:13:57;;;;;;;18.98;3.30;;;;;;;;;;5072006;28;20068;-76
2022/10/26 07:16:23;;;;;;;16.63;3.13;;;;;;;;;;5070613;28;20128;-76
2022/10/26 07:18:49;;;;;;;13.57;2.92;;;;;;;;;;5071140;28;20040;-76
2022/10/26 07:21:16;;;;;;;15.35;2.72;;;;;;;;;;5070533;28;20051;-76
2022/10/26 07:23:42;;;;;;;18.15;2.95;;;;;;;;;;5071507;28;20059;-76
2022/10/26 07:26:09;;;;;;;17.48;2.70;;;;;;;;;;5071906;28;20062;-76
2022/10/26 07:28:35;;;;;;;15.32;2.60;;;;;;;;;;5071549;28;20048;-75
2022/10/26 07:31:04;;;;;;;18.50;2.88;;;;;;;;;;5070453;28;20389;-75
2022/10/26 07:33:30;;;;;;;14.25;2.63;;;;;;;;;;5071612;28;20063;-75
2022/10/26 07:36:00;;;;;;;19.52;3.28;;;;;;;;;;5071465;28;20049;-75
2022/10/26 07:38:26;;;;;;;15.48;3.13;;;;;;;;;;5071417;28;20044;-75
2022/10/26 07:40:53;;;;;;;15.50;2.95;;;;;;;;;;5071586;28;20044;-75
2022/10/26 07:43:20;;;;;;;10.05;2.70;;;;;;;;;;5071613;28;20044;-74
2022/10/26 07:45:50;;;;;;;16.83;3.03;;;;;;;;;;5071215;28;20048;-74
2022/10/26 07:48:16;;;;;;;16.08;2.65;;;;;;;;;;5074935;28;20048;-74
2022/10/26 07:50:43;;;;;;;12.57;1.90;;;;;;;;;;5075406;28;20044;-74
2022/10/26 07:53:09;;;;;;;11.68;2.10;;;;;;;;;;5075348;28;20070;-74
2022/10/26 07:55:35;;;;;;;13.18;2.50;;;;;;;;;;5075297;28;20487;-74
2022/10/26 07:58:02;;;;;;;12.98;2.35;;;;;;;;;;5075568;28;20060;-74
2022/10/26 08:00:28;;;;;;;10.95;2.17;;;;;;;;;;5075355;28;20059;-74
2022/10/26 08:02:55;;;;;;;10.35;2.30;;;;;;;;;;5075250;28;20079;-74
2022/10/26 08:05:21;;;;;;;11.05;1.92;;;;;;;;;;5075331;28;20048;-74
2022/10/26 08:07:48;;;;;;;8.20;1.45;;;;;;;;;;5075205;28;20076;-74
2022/10/26 08:10:15;;;;;;;7.75;1.17;;;;;;;;;;5075364;28;20057;-74
2022/10/26 08:12:42;;;;;;;5.85;1.38;;;;;;;;;;5074987;28;20407;-74
2022/10/26 08:15:08;;;;;;;5.65;1.20;;;;;;;;;;5074970;28;20052;-74
2022/10/26 08:17:35;;;;;;;5.93;1.15;;;;;;;;;;5075222;28;20052;-74
2022/10/26 08:20:01;;;;;;;5.97;1.20;;;;;;;;;;5073802;28;20049;-74
2022/10/26 08:22:29;;;;;;;8.35;1.25;;;;;;;;;;5074179;28;20052;-74
2022/10/26 08:24:56;;;;;;;8.80;1.20;;;;;;;;;;5062035;28;20055;-74
2022/10/26 08:27:22;;;;;;;7.63;1.08;;;;;;;;;;5074957;28;20052;-74
2022/10/26 08:29:48;;;;;;;9.52;1.42;;;;;;;;;;5075113;28;20053;-74
2022/10/26 08:32:15;;;;;;;9.35;1.48;;;;;;;;;;5074648;28;20404;-74
2022/10/26 08:34:41;;;;;;;5.72;1.35;;;;;;;;;;5074574;28;20832;-73
2022/10/26 08:37:07;;;;;;;7.88;1.45;;;;;;;;;;5074821;28;20056;-73
2022/10/26 08:39:34;;;;;;;5.97;1.13;;;;;;;;;;5074354;28;20048;-74
2022/10/26 08:42:03;;;;;;;7.82;1.50;;;;;;;;;;5074724;28;20091;-73
2022/10/26 08:44:36;;;;;;;9.45;1.48;;;;;;;;;;5074410;28;20063;-73
2022/10/26 08:47:09;;;;;;;8.05;1.55;;;;;;;;;;5074862;28;20392;-73
2022/10/26 08:49:58;;;;;;;10.50;2.15;;;;;;;;;;5074654;28;20106;-73
2022/10/26 08:52:28;;;;;;;9.45;2.00;;;;;;;;;;5074324;28;20048;-73
2022/10/26 08:54:56;;;;;;;10.38;1.90;;;;;;;;;;5074299;28;20058;-73
2022/10/26 08:57:38;;;;;;;9.82;1.90;;;;;;;;;;5074132;28;20488;-73
2022/10/26 09:00:06;;;;;;;9.85;2.03;;;;;;;;;;5073684;28;20052;-73
2022/10/26 09:02:32;;;;;;;8.63;1.45;;;;;;;;;;5074278;28;20048;-72
2022/10/26 09:04:59;;;;;;;10.55;2.05;;;;;;;;;;5074266;28;20052;-73
2022/10/26 09:07:35;;;;;;;8.85;1.58;;;;;;;;;;5073005;28;20051;-71
2022/10/26 09:10:22;;;;;;;12.25;2.42;;;;;;;;;;5072773;28;20048;-72
2022/10/26 09:13:07;;;;;;;11.52;2.10;;;;;;;;;;5073957;28;20419;-73
2022/10/26 09:15:37;;;;;;;10.57;2.03;;;;;;;;;;5073961;28;20044;-72
2022/10/26 09:18:12;;;;;;;11.32;2.10;;;;;;;;;;5073888;28;20049;-71
2022/10/26 09:20:45;;;;;;;9.23;2.70;;;;;;;;;;5073884;28;20553;-72
2022/10/26 09:23:37;;;;;;;11.48;2.92;;;;;;;;;;5073971;28;20055;-72
2022/10/26 09:26:08;;;;;;;12.02;2.83;;;;;;;;;;5057623;28;20049;-72
2022/10/26 09:28:36;;;;;;;11.88;2.58;;;;;;;;;;5073935;28;20052;-74
2022/10/26 09:31:03;;;;;;;11.82;2.08;;;;;;;;;;5073435;28;20053;-74
2022/10/26 09:33:33;;;;;;;10.55;2.75;;;;;;;;;;5073904;28;20411;-74
2022/10/26 09:36:05;;;;;;;11.02;2.35;;;;;;;;;;5073821;28;20056;-74
2022/10/26 09:38:44;;;;;;;10.23;2.47;;;;;;;;;;5073408;28;20061;-74
2022/10/26 09:41:21;;;;;;;9.77;2.47;;;;;;;;;;5073302;28;20049;-74
2022/10/26 09:43:49;;;;;;;10.02;2.40;;;;;;;;;;5073670;28;20071;-72
2022/10/26 09:46:19;;;;;;;12.15;2.55;;;;;;;;;;5073192;28;20053;-73
2022/10/26 09:48:57;;;;;;;11.25;2.65;;;;;;;;;;5073547;28;20048;-74
2022/10/26 09:51:26;;;;;;;10.18;2.45;;;;;;;;;;5073599;28;20067;-73
2022/10/26 09:53:56;;;;;;;9.85;2.08;;;;;;;;;;5073324;28;20044;-72
2022/10/26 09:56:23;;;;;;;8.60;2.00;;;;;;;;;;5073400;28;20052;-72
2022/10/26 09:59:00;;;;;;;9.88;2.45;;;;;;;;;;5073436;28;20400;-74
2022/10/26 10:01:28;;;;;;;;;;;;;;;;;;5073740;28;20156;-73
2022/10/26 10:04:16;;;;;;;8.23;1.73;;;;;;;;;;5071586;28;20350;-73
2022/10/26 10:06:44;;;;;;;10.68;2.17;;;;;;;;;;5073145;28;20060;-73
2022/10/26 10:09:10;;;;;;;;;;;;;;;;;;5073394;28;20044;-73
2022/10/26 10:11:38;;;;;;;7.90;1.85;;;;;;;;;;5072002;28;19964;-73
2022/10/26 10:14:12;;;;;;;6.82;1.63;;;;;;;;;;5071532;28;20749;-73
2022/10/26 10:16:38;;;;;;;8.02;2.00;;;;;;;;;;5072687;28;20051;-73
2022/10/26 10:19:05;;;;;;;7.55;2.03;;;;;;;;;;5072828;28;20059;-73
2022/10/26 10:21:39;;;;;;;9.00;2.00;;;;;;;;;;5073084;28;20040;-73
2022/10/26 10:24:28;;;;;;;7.97;2.20;;;;;;;;;;5072638;28;20055;-73
2022/10/26 10:27:14;;;;;;;7.82;1.98;;;;;;;;;;5071637;28;20063;-74
2022/10/26 10:29:45;;;;;;;8.27;2.00;;;;;;;;;;5072690;28;20063;-74
2022/10/26 10:32:16;;;;;;;8.60;2.17;;;;;;;;;;5071103;28;20499;-74
2022/10/26 10:34:43;;;;;;;12.40;2.50;;;;;;;;;;5072247;28;20050;-74
2022/10/26 10:37:22;;;;;;;7.40;2.00;;;;;;;;;;5072606;28;20048;-73
2022/10/26 10:39:49;;;;;;;11.75;2.58;;;;;;;;;;5070910;28;20480;-74
2022/10/26 10:42:20;;;;;;;7.82;1.73;;;;;;;;;;5072415;28;20058;-74
2022/10/26 10:44:50;;;;;;;9.73;2.80;;;;;;;;;;5072092;28;20135;-74
2022/10/26 10:47:21;;;;;;;10.65;2.58;;;;;;;;;;5072645;28;20041;-74
2022/10/26 10:49:59;;;;;;;7.30;2.08;;;;;;;;;;5072361;28;20494;-74
2022/10/26 10:52:30;;;;;;;11.20;2.25;;;;;;;;;;5072287;28;20478;-74
2022/10/26 10:55:02;;;;;;;10.73;2.55;;;;;;;;;;5072202;28;20056;-74
2022/10/26 10:57:38;;;;;;;8.32;2.22;;;;;;;;;;5072111;28;20048;-74
2022/10/26 11:00:05;;;;;;;12.10;2.50;;;;;;;;;;5071882;28;20045;-74
2022/10/26 11:02:41;;;;;;;9.88;2.20;;;;;;;;;;5071671;28;20284;-74
2022/10/26 11:05:16;;;;;;;9.05;2.33;;;;;;;;;;5071919;28;20072;-74
2022/10/26 11:07:52;;;;;;;10.02;2.60;;;;;;;;;;5071879;28;20067;-74
2022/10/26 11:10:20;;;;;;;12.87;2.60;;;;;;;;;;5072115;28;20064;-74
2022/10/26 11:12:50;;;;;;;11.48;2.60;;;;;;;;;;5071966;28;20291;-74
2022/10/26 11:15:19;;;;;;;11.82;2.88;;;;;;;;;;5071759;28;20053;-74
2022/10/26 11:17:57;;;;;;;12.63;2.92;;;;;;;;;;5071915;28;20044;-74
2022/10/26 11:20:25;;;;;;;11.55;2.85;;;;;;;;;;5071957;28;20052;-75
2022/10/26 11:22:51;;;;;;;12.25;3.58;;;;;;;;;;5070160;28;20054;-75
2022/10/26 11:25:18;;;;;;;;;;;;;;;;;;5072034;28;20051;-75
2022/10/26 11:27:50;;;;;;;9.43;2.65;;;;;;;;;;5071822;28;19925;-74
2022/10/26 11:30:18;;;;;;;10.35;3.47;;;;;;;;;;5071805;28;20082;-75
2022/10/26 11:32:53;;;;;;;12.52;3.30;;;;;;;;;;5071537;28;20055;-75
2022/10/26 11:35:30;;;;;;;11.30;3.22;;;;;;;;;;5071787;28;20071;-75
2022/10/26 11:38:03;;;;;;;12.63;3.28;;;;;;;;;;5071495;28;20390;-75
2022/10/26 11:40:40;;;;;;;11.48;2.90;;;;;;;;;;5070493;28;20055;-75
2022/10/26 11:43:19;;;;;;;13.65;3.35;;;;;;;;;;5071381;28;20045;-75
2022/10/26 11:45:56;;;;;;;14.15;3.35;;;;;;;;;;5071369;28;20056;-75
2022/10/26 11:48:27;;;;;;;12.75;3.20;;;;;;;;;;5071790;28;20041;-75
2022/10/26 11:50:56;;;;;;;12.73;3.05;;;;;;;;;;5070232;28;20060;-75
2022/10/26 11:53:25;;;;;;;12.60;3.10;;;;;;;;;;5071327;28;20045;-75
2022/10/26 11:55:53;;;;;;;11.82;3.03;;;;;;;;;;5043262;28;20053;-75
2022/10/26 11:58:23;;;;;;;13.50;2.90;;;;;;;;;;5071418;28;20049;-76
2022/10/26 12:00:52;;;;;;;11.50;3.22;;;;;;;;;;5071317;28;20048;-76
2022/10/26 12:03:22;;;;;;;10.68;3.15;;;;;;;;;;5071623;28;20403;-76
2022/10/26 12:05:52;;;;;;;12.25;3.35;;;;;;;;;;5071235;28;20047;-76
2022/10/26 12:08:39;;;;;;;11.05;3.13;;;;;;;;;;5071556;28;20045;-76
2022/10/26 12:11:12;;;;;;;15.25;3.33;;;;;;;;;;5071147;28;20044;-76
2022/10/26 12:13:46;;;;;;;12.02;3.38;;;;;;;;;;5071232;28;20058;-76
2022/10/26 12:16:20;;;;;;;10.63;3.30;;;;;;;;;;5071388;28;20051;-76
2022/10/26 12:19:03;;;;;;;12.18;2.97;;;;;;;;;;5071323;28;20056;-76
2022/10/26 12:21:30;;;;;;;8.75;2.65;;;;;;;;;;5071291;28;20044;-76
2022/10/26 12:24:00;;;;;;;11.88;2.55;;;;;;;;;;5071351;28;20129;-76
2022/10/26 12:26:26;;;;;;;9.85;2.60;;;;;;;;;;5071186;28;20048;-76
2022/10/26 12:29:02;;;;;;;9.63;2.83;;;;;;;;;;5071483;28;20044;-76
2022/10/26 12:31:31;;;;;;;10.52;2.80;;;;;;;;;;5069611;28;20555;-76
2022/10/26 12:33:59;;;;;;;11.63;2.65;;;;;;;;;;5071911;28;20067;-76
2022/10/26 12:36:44;;;;;;;11.45;2.80;;;;;;;;;;5073510;28;20043;-76
2022/10/26 12:39:37;;;;;;;10.55;2.80;;;;;;;;;;5074466;28;20053;-76
2022/10/26 12:42:03;;;;;;;10.23;3.03;;;;;;;;;;5072549;28;20055;-76
2022/10/26 12:44:49;;;;;;;9.43;2.80;;;;;;;;;;5074473;28;20049;-76
2022/10/26 12:47:31;;;;;;;11.70;2.95;;;;;;;;;;5043081;28;20048;-76
2022/10/26 12:50:07;;;;;;;10.63;2.65;;;;;;;;;;5074384;28;20054;-76
2022/10/26 12:52:53;;;;;;;10.37;2.80;;;;;;;;;;5074752;28;20453;-76
2022/10/26 12:55:19;;;;;;;;;;;;;;;;;;5074931;28;20496;-76
2022/10/26 12:57:46;;;;;;;10.82;2.78;;;;;;;;;;5073001;28;20311;-76
2022/10/26 13:00:17;;;;;;;9.80;3.03;;;;;;;;;;5074318;28;20506;-76
2022/10/26 13:02:49;;;;;;;9.98;3.00;;;;;;;;;;5072972;28;20106;-76
2022/10/26 13:05:34;;;;;;;10.48;2.40;;;;;;;;;;5074161;28;20476;-76
2022/10/26 13:08:02;;;;;;;13.25;3.22;;;;;;;;;;5074339;28;20059;-76
2022/10/26 13:10:29;;;;;;;10.63;2.97;;;;;;;;;;5074147;28;20048;-76
2022/10/26 13:12:57;;;;;;;9.23;2.85;;;;;;;;;;5074626;28;20052;-76
2022/10/26 13:15:27;;;;;;;12.73;3.15;;;;;;;;;;5074044;28;20053;-76
2022/10/26 13:17:56;;;;;;;11.25;3.35;;;;;;;;;;5073868;28;20510;-76
2022/10/26 13:20:23;;;;;;;8.82;2.65;;;;;;;;;;5073944;28;20053;-76
2022/10/26 13:22:49;;;;;;;10.82;2.53;;;;;;;;;;5073962;28;20054;-76
2022/10/26 13:25:22;;;;;;;11.75;3.53;;;;;;;;;;5073772;28;20520;-76
2022/10/26 13:28:05;;;;;;;11.32;2.70;;;;;;;;;;5072786;28;20042;-76
2022/10/26 13:30:31;;;;;;;13.55;3.33;;;;;;;;;;5074043;28;20053;-76
2022/10/26 13:32:59;;;;;;;13.18;3.10;;;;;;;;;;5074027;28;20052;-76
2022/10/26 13:35:25;;;;;;;13.35;3.38;;;;;;;;;;5073715;28;20048;-76
2022/10/26 13:37:54;;;;;;;10.60;3.13;;;;;;;;;;5073616;28;20062;-76
2022/10/26 13:40:22;;;;;;;9.63;2.80;;;;;;;;;;5073448;28;20045;-76
2022/10/26 13:42:51;;;;;;;13.82;3.47;;;;;;;;;;5073367;28;20049;-76
2022/10/26 13:45:19;;;;;;;13.95;3.17;;;;;;;;;;5073172;28;20052;-76
2022/10/26 13:47:57;;;;;;;11.52;3.10;;;;;;;;;;5073285;28;20044;-76
2022/10/26 13:50:26;;;;;;;12.48;3.25;;;;;;;;;;5072096;28;20048;-77
2022/10/26 13:53:05;;;;;;;14.77;3.17;;;;;;;;;;5073614;28;20058;-77
2022/10/26 13:55:37;;;;;;;15.52;3.47;;;;;;;;;;5073029;28;20048;-77
2022/10/26 13:58:04;;;;;;;15.60;3.17;;;;;;;;;;5073066;28;20515;-77
2022/10/26 14:00:30;;;;;;;14.07;3.50;;;;;;;;;;5072877;28;20049;-76
2022/10/26 14:02:57;;;;;;;16.77;3.78;;;;;;;;;;5073111;28;20332;-76
2022/10/26 14:05:23;;;;;;;20.30;3.73;;;;;;;;;;5072992;28;20044;-76
2022/10/26 14:07:54;;;;;;;14.00;3.58;;;;;;;;;;5073149;28;20277;-76
2022/10/26 14:10:25;;;;;;;14.63;3.85;;;;;;;;;;5072873;28;20545;-76
2022/10/26 14:12:52;;;;;;;10.63;3.10;;;;;;;;;;5045039;28;20052;-76
2022/10/26 14:15:19;;;;;;;;;;;;;;;;;;5073497;28;20044;-77
2022/10/26 14:17:48;;;;;;;16.13;3.83;;;;;;;;;;5072752;28;19927;-77
2022/10/26 14:20:19;;;;;;;16.20;3.60;;;;;;;;;;5073249;28;20052;-77
2022/10/26 14:22:45;;;;;;;14.80;3.33;;;;;;;;;;5072525;28;20055;-77
2022/10/26 14:25:19;;;;;;;17.30;3.85;;;;;;;;;;5071644;28;20056;-77
2022/10/26 14:28:03;;;;;;;14.20;3.70;;;;;;;;;;5071361;28;20041;-77
2022/10/26 14:30:31;;;;;;;16.40;3.70;;;;;;;;;;5072718;28;20404;-77
2022/10/26 14:32:57;;;;;;;11.95;3.70;;;;;;;;;;5072247;28;20483;-77
2022/10/26 14:35:27;;;;;;;15.95;3.65;;;;;;;;;;5072700;28;20052;-76
2022/10/26 14:37:59;;;;;;;15.95;3.67;;;;;;;;;;5072597;28;20049;-76
2022/10/26 14:40:27;;;;;;;16.23;3.60;;;;;;;;;;5072319;28;20045;-76
2022/10/26 14:42:55;;;;;;;14.52;3.35;;;;;;;;;;5072217;28;20071;-76
2022/10/26 14:45:35;;;;;;;17.08;3.80;;;;;;;;;;5071956;28;20501;-77
2022/10/26 14:48:34;;;;;;;19.13;3.88;;;;;;;;;;5071260;28;20041;-76
2022/10/26 14:51:07;;;;;;;15.27;3.40;;;;;;;;;;5072133;28;20411;-76
2022/10/26 14:53:35;;;;;;;16.52;3.72;;;;;;;;;;5071959;28;20059;-76